createdAt,value
2017-11-07T00:02:22.414Z,92.86
2017-11-07T00:08:25.917Z,92.93
2017-11-07T00:14:30.173Z,92.78
2017-11-07T00:20:33.680Z,92.92
2017-11-07T00:26:37.172Z,92.98
2017-11-07T00:32:40.675Z,92.72
2017-11-07T00:38:44.938Z,92.78
2017-11-07T00:44:48.439Z,93.34
2017-11-07T00:50:51.957Z,93.54
2017-11-07T00:56:55.497Z,93.40
2017-11-07T01:02:58.993Z,93.16
2017-11-07T01:09:02.475Z,93.33
2017-11-07T01:15:05.966Z,93.61
2017-11-07T01:21:09.477Z,93.31
2017-11-07T01:27:13.734Z,93.30
2017-11-07T01:33:17.234Z,93.33
2017-11-07T01:39:20.739Z,92.83
2017-11-07T01:45:25.003Z,92.70
2017-11-07T01:51:28.500Z,92.19
2017-11-07T01:57:31.980Z,92.26
2017-11-07T02:03:35.464Z,92.37
2017-11-07T02:09:38.945Z,92.73
2017-11-07T02:15:42.459Z,92.35
2017-11-07T02:21:46.697Z,92.77
2017-11-07T02:27:50.179Z,92.66
2017-11-07T02:33:53.652Z,92.86
2017-11-07T02:39:57.149Z,92.70
2017-11-07T02:46:00.633Z,92.75
2017-11-07T02:52:04.130Z,92.40
2017-11-07T02:58:07.621Z,93.06
2017-11-07T03:04:11.110Z,92.92
2017-11-07T03:10:14.684Z,92.42
2017-11-07T03:16:18.181Z,92.32
2017-11-07T03:22:21.772Z,92.36
2017-11-07T03:28:26.797Z,92.83
2017-11-07T03:34:30.288Z,93.75
2017-11-07T03:40:33.777Z,93.74
2017-11-07T03:46:37.264Z,93.95
2017-11-07T03:52:40.744Z,94.03
2017-11-07T03:58:44.272Z,93.65
2017-11-07T04:04:47.763Z,93.79
2017-11-07T04:10:51.269Z,93.64
2017-11-07T04:16:54.782Z,93.57
2017-11-07T04:22:58.267Z,93.81
2017-11-07T04:29:01.777Z,93.78
2017-11-07T04:35:06.040Z,93.38
2017-11-07T04:41:09.552Z,93.22
2017-11-07T04:47:13.822Z,93.22
2017-11-07T04:53:17.309Z,93.14
2017-11-07T04:59:20.812Z,93.39
2017-11-07T05:05:24.327Z,93.86
2017-11-07T05:11:27.852Z,93.71
2017-11-07T05:17:31.344Z,93.71
2017-11-07T05:23:34.834Z,93.68
2017-11-07T05:29:38.338Z,93.53
2017-11-07T05:35:42.616Z,93.59
2017-11-07T05:41:47.030Z,93.81
2017-11-07T05:47:50.535Z,93.71
2017-11-07T05:53:54.894Z,93.92
2017-11-07T05:59:58.388Z,93.98
2017-11-07T06:06:01.893Z,94.05
2017-11-07T06:12:06.885Z,94.19
2017-11-07T06:18:10.388Z,94.07
2017-11-07T06:24:15.374Z,94.04
2017-11-07T06:30:18.863Z,93.97
2017-11-07T06:36:22.379Z,93.60
2017-11-07T06:42:25.864Z,94.28
2017-11-07T06:48:29.342Z,94.39
2017-11-07T06:54:32.837Z,94.17
2017-11-07T07:00:36.312Z,94.00
2017-11-07T07:06:39.803Z,93.97
2017-11-07T07:12:43.301Z,94.10
2017-11-07T07:18:46.782Z,94.15
2017-11-07T07:24:50.357Z,93.83
2017-11-07T07:30:55.291Z,93.62
2017-11-07T07:36:59.540Z,93.38
2017-11-07T07:43:03.025Z,93.02
2017-11-07T07:49:06.517Z,93.28
2017-11-07T07:55:10.001Z,91.91
2017-11-07T08:01:13.516Z,91.42
2017-11-07T08:07:17.643Z,91.64
2017-11-07T08:13:22.102Z,90.72
2017-11-07T08:19:26.015Z,90.26
2017-11-07T08:25:29.805Z,89.35
2017-11-07T08:31:34.798Z,89.32
2017-11-07T08:37:38.528Z,90.12
2017-11-07T08:43:42.795Z,89.38
2017-11-07T08:49:46.280Z,87.97
2017-11-07T08:55:49.753Z,87.45
2017-11-07T09:01:53.574Z,87.37
2017-11-07T09:07:57.050Z,88.26
2017-11-07T09:14:00.634Z,88.04
2017-11-07T09:20:04.130Z,87.92
2017-11-07T09:26:07.614Z,86.93
2017-11-07T09:32:11.105Z,86.27
2017-11-07T09:38:15.387Z,86.40
2017-11-07T09:44:18.866Z,87.03
2017-11-07T09:50:22.352Z,87.78
2017-11-07T09:56:25.863Z,89.62
2017-11-07T10:02:29.336Z,89.35
2017-11-07T10:08:33.123Z,89.90
2017-11-07T10:14:36.890Z,88.72
2017-11-07T10:20:40.699Z,86.40
2017-11-07T10:26:44.170Z,85.14
2017-11-07T10:32:47.982Z,84.17
2017-11-07T10:38:52.245Z,84.15
2017-11-07T10:44:55.713Z,83.95
2017-11-07T10:50:59.454Z,84.81
2017-11-07T10:57:02.935Z,85.41
2017-11-07T11:03:06.433Z,84.63
2017-11-07T11:09:10.239Z,85.29
2017-11-07T11:15:14.488Z,86.95
2017-11-07T11:21:17.969Z,84.73
2017-11-07T11:27:21.455Z,84.02
2017-11-07T11:33:25.668Z,84.79
2017-11-07T11:39:29.149Z,84.61
2017-11-07T11:45:32.966Z,85.09
2017-11-07T11:51:36.449Z,84.97
2017-11-07T11:57:39.935Z,84.70
2017-11-07T12:03:43.422Z,85.69
2017-11-07T12:09:47.104Z,84.77
2017-11-07T12:15:50.621Z,84.54
2017-11-07T12:21:55.208Z,84.16
2017-11-07T12:27:58.710Z,83.43
2017-11-07T12:34:02.953Z,83.40
2017-11-07T12:40:06.573Z,83.59
2017-11-07T12:46:10.134Z,83.99
2017-11-07T12:52:13.626Z,83.61
2017-11-07T12:58:17.199Z,83.05
2017-11-07T13:04:20.678Z,82.91
2017-11-07T13:10:25.022Z,82.56
2017-11-07T13:16:28.825Z,82.39
2017-11-07T13:22:33.080Z,83.28
2017-11-07T13:28:36.555Z,83.86
2017-11-07T13:34:40.039Z,84.09
2017-11-07T13:40:43.527Z,84.12
2017-11-07T13:46:47.024Z,81.48
2017-11-07T13:52:50.511Z,81.57
2017-11-07T13:58:53.988Z,83.43
2017-11-07T14:04:57.473Z,83.56
2017-11-07T14:11:01.310Z,83.83
2017-11-07T14:17:05.573Z,84.03
2017-11-07T14:23:09.221Z,84.64
2017-11-07T14:29:12.705Z,84.40
2017-11-07T14:35:16.206Z,84.67
2017-11-07T14:41:19.731Z,85.22
2017-11-07T14:47:24.078Z,85.56
2017-11-07T14:53:28.346Z,86.74
2017-11-07T14:59:31.839Z,87.27
2017-11-07T15:05:35.338Z,87.51
2017-11-07T15:11:39.614Z,87.70
2017-11-07T15:17:43.130Z,88.07
2017-11-07T15:23:47.377Z,88.08
2017-11-07T15:29:50.953Z,88.37
2017-11-07T15:35:54.503Z,89.00
2017-11-07T15:41:59.080Z,89.81
2017-11-07T15:48:02.740Z,89.10
2017-11-07T15:54:06.250Z,88.73
2017-11-07T16:00:09.743Z,88.37
2017-11-07T16:06:13.539Z,88.16
2017-11-07T16:12:17.017Z,87.97
2017-11-07T16:18:20.498Z,87.93
2017-11-07T16:24:24.606Z,88.39
2017-11-07T16:30:28.393Z,88.61
2017-11-07T16:36:31.879Z,88.07
2017-11-07T16:42:35.377Z,88.03
2017-11-07T16:48:38.868Z,88.99
2017-11-07T16:54:43.122Z,88.43
2017-11-07T17:00:46.695Z,89.00
2017-11-07T17:06:50.535Z,89.37
2017-11-07T17:12:54.808Z,89.61
2017-11-07T17:18:58.310Z,90.07
2017-11-07T17:25:01.891Z,90.05
2017-11-07T17:31:05.420Z,89.81
2017-11-07T17:37:09.673Z,89.99
2017-11-07T17:43:13.163Z,89.60
2017-11-07T17:49:16.657Z,89.53
2017-11-07T17:55:20.920Z,89.25
2017-11-07T18:01:24.578Z,89.45
2017-11-07T18:07:29.157Z,89.94
2017-11-07T18:13:33.040Z,90.07
2017-11-07T18:19:36.544Z,90.23
2017-11-07T18:25:40.035Z,90.27
2017-11-07T18:31:44.299Z,89.63
2017-11-07T18:37:47.802Z,89.94
2017-11-07T18:43:51.599Z,90.30
2017-11-07T18:49:55.098Z,90.47
2017-11-07T18:55:59.365Z,90.81
2017-11-07T19:02:03.173Z,90.22
2017-11-07T19:08:06.655Z,90.03
2017-11-07T19:14:10.163Z,90.42
2017-11-07T19:20:14.454Z,90.78
2017-11-07T19:26:17.995Z,90.46
2017-11-07T19:32:21.484Z,90.56
2017-11-07T19:38:24.973Z,90.61
2017-11-07T19:44:28.449Z,90.70
2017-11-07T19:50:31.955Z,90.42
2017-11-07T19:56:35.458Z,90.11
2017-11-07T20:02:38.946Z,89.98
2017-11-07T20:08:42.728Z,89.91
2017-11-07T20:14:46.252Z,90.07
2017-11-07T20:20:50.097Z,90.25
2017-11-07T20:26:53.590Z,90.38
2017-11-07T20:32:57.080Z,90.49
2017-11-07T20:39:01.334Z,90.86
2017-11-07T20:45:05.097Z,90.71
2017-11-07T20:51:09.333Z,90.45
2017-11-07T20:57:12.840Z,90.66
2017-11-07T21:03:16.655Z,90.89
2017-11-07T21:15:29.978Z,91.04
2017-11-07T21:21:33.755Z,91.01
2017-11-07T21:27:37.265Z,90.85
2017-11-07T21:33:41.513Z,90.45
2017-11-07T21:39:46.752Z,90.92
2017-11-07T21:45:50.244Z,91.05
2017-11-07T21:51:55.231Z,90.66
2017-11-07T21:57:58.743Z,90.95
2017-11-07T22:04:02.239Z,91.33
2017-11-07T22:10:06.071Z,91.37
2017-11-07T22:16:09.539Z,91.41
2017-11-07T22:22:13.041Z,91.17
2017-11-07T22:28:16.521Z,91.06
2017-11-07T22:34:20.017Z,91.29
2017-11-07T22:40:23.498Z,91.52
2017-11-07T22:46:27.013Z,91.35
2017-11-07T22:52:30.775Z,91.22
2017-11-07T22:58:34.267Z,91.45
2017-11-07T23:04:37.769Z,91.17
2017-11-07T23:10:41.244Z,91.14
2017-11-07T23:16:45.064Z,91.67
2017-11-07T23:22:48.657Z,92.09
2017-11-07T23:28:52.137Z,92.81
2017-11-07T23:34:55.606Z,92.03
2017-11-07T23:40:59.085Z,91.49
2017-11-07T23:47:02.584Z,91.29
2017-11-07T23:53:06.071Z,90.83
2017-11-07T23:59:09.553Z,90.65
